Time;durP1;ratioP1;P1;durP2;ratioP2;P2;SDS_P1;SDS_P2;PMS_P1;PMS_P2;Temp;Humidity;BMP_temperature;BMP_pressure;BME280_temperature;BME280_humidity;BME280_pressure;Samples;Min_cycle;Max_cycle;Signal;HPM_P1;HPM_P2
2022/03/05 00:01:10;;;;;;;;;58.50;45.50;;;;;;;;5122989;27;45216;-74
2022/03/05 00:03:35;;;;;;;;;59.75;48.50;;;;;;;;5122882;27;46454;-75
2022/03/05 00:06:00;;;;;;;;;61.75;45.75;;;;;;;;5123047;27;45138;-75
2022/03/05 00:08:25;;;;;;;;;59.75;47.75;;;;;;;;5121700;27;45443;-74
2022/03/05 00:10:51;;;;;;;;;54.00;43.00;;;;;;;;5121190;27;45794;-74
2022/03/05 00:13:16;;;;;;;;;61.00;47.75;;;;;;;;5122841;27;45347;-74
2022/03/05 00:15:43;;;;;;;;;57.50;45.75;;;;;;;;5121462;27;45967;-74
2022/03/05 00:18:08;;;;;;;;;59.50;46.50;;;;;;;;5130144;27;45312;-74
2022/03/05 00:20:34;;;;;;;;;56.50;44.50;;;;;;;;5142104;27;45989;-74
2022/03/05 00:22:59;;;;;;;;;58.00;46.00;;;;;;;;5142058;27;46977;-74
2022/03/05 00:25:24;;;;;;;;;54.00;43.00;;;;;;;;5141807;27;45525;-74
2022/03/05 00:27:50;;;;;;;;;58.50;44.00;;;;;;;;5142052;27;45457;-75
2022/03/05 00:30:16;;;;;;;;;59.75;46.25;;;;;;;;5143353;27;45444;-74
2022/03/05 00:32:41;;;;;;;;;53.00;40.25;;;;;;;;5141966;27;47930;-75
2022/03/05 00:35:07;;;;;;;;;58.00;47.50;;;;;;;;5141843;27;45264;-74
2022/03/05 00:37:32;;;;;;;;;57.75;45.75;;;;;;;;5143427;27;45249;-74
2022/03/05 00:39:57;;;;;;;;;52.25;42.50;;;;;;;;5141649;27;45582;-75
2022/03/05 00:42:23;;;;;;;;;54.00;43.50;;;;;;;;5142910;27;46174;-74
2022/03/05 00:44:48;;;;;;;;;56.50;45.25;;;;;;;;5141744;27;45153;-74
2022/03/05 00:47:13;;;;;;;;;59.25;46.00;;;;;;;;5141868;27;45166;-74
2022/03/05 00:49:38;;;;;;;;;61.75;48.00;;;;;;;;5141661;27;47582;-74
2022/03/05 00:52:04;;;;;;;;;61.25;46.75;;;;;;;;5141594;27;47085;-74
2022/03/05 00:54:29;;;;;;;;;62.50;49.00;;;;;;;;5142987;27;45287;-74
2022/03/05 00:56:54;;;;;;;;;63.00;45.50;;;;;;;;5141564;27;45590;-74
2022/03/05 00:59:20;;;;;;;;;56.25;47.00;;;;;;;;5141418;27;45972;-74
2022/03/05 01:01:45;;;;;;;;;57.25;44.50;;;;;;;;5141399;27;47219;-75
2022/03/05 01:04:10;;;;;;;;;62.75;46.75;;;;;;;;5141335;27;45285;-74
2022/03/05 01:06:35;;;;;;;;;56.00;44.50;;;;;;;;5141449;27;45588;-74
2022/03/05 01:09:02;;;;;;;;;56.50;46.00;;;;;;;;5141183;27;46214;-75
2022/03/05 01:11:27;;;;;;;;;60.00;46.25;;;;;;;;5142397;27;45343;-74
2022/03/05 01:13:52;;;;;;;;;62.00;47.00;;;;;;;;5141085;27;45337;-74
2022/03/05 01:16:17;;;;;;;;;58.50;47.00;;;;;;;;5141358;27;45452;-75
2022/03/05 01:18:43;;;;;;;;;53.75;44.00;;;;;;;;5128874;27;45295;-74
2022/03/05 01:21:08;;;;;;;;;54.75;45.00;;;;;;;;5121730;27;45296;-75
2022/03/05 01:23:33;;;;;;;;;60.25;43.25;;;;;;;;5120216;27;46112;-74
2022/03/05 01:25:58;;;;;;;;;54.00;44.25;;;;;;;;5119949;27;45425;-75
2022/03/05 01:28:23;;;;;;;;;55.00;45.00;;;;;;;;5121538;27;45320;-74
2022/03/05 01:30:49;;;;;;;;;58.50;46.25;;;;;;;;5121581;27;46223;-74
2022/03/05 01:33:15;;;;;;;;;60.00;48.00;;;;;;;;5121661;27;45370;-75
2022/03/05 01:35:44;;;;;;;;;56.50;44.50;;;;;;;;5120414;27;45326;-74
2022/03/05 01:38:10;;;;;;;;;54.25;44.50;;;;;;;;5119819;27;45904;-75
2022/03/05 01:40:35;;;;;;;;;55.25;45.25;;;;;;;;5119634;27;45324;-74
2022/03/05 01:43:00;;;;;;;;;57.00;45.50;;;;;;;;5120135;27;45528;-75
2022/03/05 01:45:26;;;;;;;;;61.75;47.00;;;;;;;;5120185;27;45308;-74
2022/03/05 01:47:51;;;;;;;;;60.00;47.50;;;;;;;;5121377;27;45425;-74
2022/03/05 01:50:16;;;;;;;;;57.25;45.50;;;;;;;;5121357;27;46373;-74
2022/03/05 01:52:41;;;;;;;;;57.25;47.50;;;;;;;;5121390;27;45288;-74
2022/03/05 01:55:07;;;;;;;;;60.25;49.50;;;;;;;;5119996;27;45316;-74
2022/03/05 01:57:32;;;;;;;;;55.75;44.75;;;;;;;;5121077;27;45292;-75
2022/03/05 01:59:58;;;;;;;;;55.25;44.00;;;;;;;;5121253;27;45321;-75
2022/03/05 02:02:23;;;;;;;;;58.50;45.50;;;;;;;;5121226;27;45312;-74
2022/03/05 02:04:48;;;;;;;;;61.50;48.50;;;;;;;;5119822;27;45316;-74
2022/03/05 02:07:14;;;;;;;;;60.00;49.00;;;;;;;;5121129;27;45452;-74
2022/03/05 02:09:39;;;;;;;;;60.75;48.75;;;;;;;;5120918;27;45387;-75
2022/03/05 02:12:05;;;;;;;;;59.00;48.25;;;;;;;;5119542;27;45271;-75
2022/03/05 02:14:30;;;;;;;;;60.50;47.00;;;;;;;;5119727;27;45285;-74
2022/03/05 02:16:55;;;;;;;;;62.00;48.00;;;;;;;;5120709;27;45332;-75
2022/03/05 02:19:20;;;;;;;;;56.00;46.25;;;;;;;;5138310;27;48177;-75
2022/03/05 02:21:46;;;;;;;;;59.75;47.25;;;;;;;;5141809;27;45277;-75
2022/03/05 02:24:11;;;;;;;;;59.00;46.75;;;;;;;;5139998;27;45250;-75
2022/03/05 02:26:36;;;;;;;;;52.25;44.25;;;;;;;;5140143;27;46255;-75
2022/03/05 02:29:02;;;;;;;;;52.75;43.75;;;;;;;;5141371;27;45237;-75
2022/03/05 02:31:27;;;;;;;;;53.75;44.25;;;;;;;;5140236;27;45252;-75
2022/03/05 02:33:53;;;;;;;;;56.75;43.75;;;;;;;;5140284;27;45237;-75
2022/03/05 02:36:19;;;;;;;;;51.25;43.00;;;;;;;;5140133;27;45829;-75
2022/03/05 02:38:45;;;;;;;;;55.25;44.00;;;;;;;;5141592;27;45276;-75
2022/03/05 02:41:10;;;;;;;;;56.75;45.25;;;;;;;;5141021;27;45422;-75
2022/03/05 02:43:35;;;;;;;;;53.00;43.00;;;;;;;;5140153;27;45482;-75
2022/03/05 02:46:00;;;;;;;;;54.00;44.00;;;;;;;;5141499;27;45319;-75
2022/03/05 02:48:26;;;;;;;;;54.00;43.50;;;;;;;;5141795;27;45445;-75
2022/03/05 02:50:51;;;;;;;;;51.00;41.00;;;;;;;;5145158;27;45319;-75
2022/03/05 02:53:16;;;;;;;;;54.50;43.25;;;;;;;;5145206;27;45259;-74
2022/03/05 02:55:42;;;;;;;;;47.75;40.50;;;;;;;;5143386;27;47383;-75
2022/03/05 02:58:08;;;;;;;;;51.50;42.00;;;;;;;;5143439;27;47312;-75
2022/03/05 03:00:33;;;;;;;;;49.00;42.25;;;;;;;;5144992;27;45311;-75
2022/03/05 03:02:58;;;;;;;;;53.75;43.50;;;;;;;;5145036;27;45561;-75
2022/03/05 03:05:24;;;;;;;;;52.25;43.25;;;;;;;;5143303;27;46078;-75
2022/03/05 03:07:49;;;;;;;;;54.75;41.75;;;;;;;;5143199;27;48152;-75
2022/03/05 03:10:15;;;;;;;;;52.25;41.75;;;;;;;;5143146;27;45577;-75
2022/03/05 03:12:40;;;;;;;;;56.50;43.25;;;;;;;;5144879;27;45325;-75
2022/03/05 03:15:06;;;;;;;;;55.25;44.00;;;;;;;;5144572;27;45237;-75
2022/03/05 03:17:48;;;;;;;;;54.00;42.75;;;;;;;;5140988;27;45131;-75
2022/03/05 03:20:16;;;;;;;;;52.75;43.00;;;;;;;;5123712;27;45301;-75
2022/03/05 03:22:41;;;;;;;;;49.50;38.75;;;;;;;;5123784;27;45185;-75
2022/03/05 03:25:07;;;;;;;;;48.00;39.00;;;;;;;;5121912;27;46332;-75
2022/03/05 03:27:32;;;;;;;;;49.50;39.00;;;;;;;;5121720;27;47189;-76
2022/03/05 03:29:57;;;;;;;;;44.75;38.25;;;;;;;;5122302;27;45269;-75
2022/03/05 03:32:23;;;;;;;;;49.00;38.50;;;;;;;;5123780;27;45210;-75
2022/03/05 03:34:48;;;;;;;;;49.75;42.00;;;;;;;;5123518;27;45493;-75
2022/03/05 03:37:13;;;;;;;;;49.25;39.75;;;;;;;;5122013;27;48451;-75
2022/03/05 03:39:38;;;;;;;;;52.25;42.50;;;;;;;;5123400;27;45229;-75
2022/03/05 03:42:04;;;;;;;;;47.50;41.00;;;;;;;;5122012;27;45241;-75
2022/03/05 03:44:29;;;;;;;;;54.50;43.00;;;;;;;;5123307;27;45413;-75
2022/03/05 03:46:56;;;;;;;;;53.50;42.25;;;;;;;;5121909;27;47444;-75
2022/03/05 03:49:22;;;;;;;;;48.25;39.00;;;;;;;;5121958;27;45294;-75
2022/03/05 03:51:47;;;;;;;;;51.75;41.50;;;;;;;;5123506;27;45272;-74
2022/03/05 03:54:12;;;;;;;;;51.25;41.00;;;;;;;;5123021;27;45347;-75
2022/03/05 03:56:37;;;;;;;;;50.25;40.75;;;;;;;;5123052;27;45543;-75
2022/03/05 03:59:03;;;;;;;;;44.25;39.00;;;;;;;;5121758;27;45318;-75
2022/03/05 04:01:28;;;;;;;;;54.25;40.75;;;;;;;;5121725;27;45308;-75
2022/03/05 04:03:53;;;;;;;;;46.50;39.00;;;;;;;;5121667;27;46267;-74
2022/03/05 04:06:18;;;;;;;;;54.25;42.50;;;;;;;;5123013;27;45311;-74
2022/03/05 04:08:43;;;;;;;;;47.25;40.50;;;;;;;;5122998;27;45304;-75
2022/03/05 04:11:13;;;;;;;;;53.75;42.00;;;;;;;;5122816;27;45295;-75
2022/03/05 04:13:39;;;;;;;;;50.25;40.00;;;;;;;;5121564;27;45234;-74
2022/03/05 04:16:05;;;;;;;;;51.50;39.75;;;;;;;;5121250;27;45620;-75
2022/03/05 04:18:30;;;;;;;;;49.00;39.50;;;;;;;;5134222;27;46479;-75
2022/03/05 04:20:56;;;;;;;;;49.25;39.75;;;;;;;;5142310;27;45244;-74
2022/03/05 04:23:21;;;;;;;;;55.75;44.25;;;;;;;;5143542;27;45270;-75
2022/03/05 04:25:46;;;;;;;;;51.00;40.25;;;;;;;;5142836;27;45472;-74
2022/03/05 04:28:11;;;;;;;;;52.75;43.00;;;;;;;;5143340;27;45400;-74
2022/03/05 04:30:36;;;;;;;;;50.00;39.50;;;;;;;;5143516;27;45581;-74
2022/03/05 04:33:02;;;;;;;;;55.00;44.50;;;;;;;;5141956;27;46466;-74
2022/03/05 04:35:27;;;;;;;;;49.50;40.75;;;;;;;;5141996;27;47449;-74
2022/03/05 04:37:52;;;;;;;;;52.50;41.50;;;;;;;;5143370;27;45311;-75
2022/03/05 04:40:18;;;;;;;;;47.50;40.00;;;;;;;;5141853;27;45341;-74
2022/03/05 04:42:44;;;;;;;;;49.75;40.75;;;;;;;;5143340;27;45290;-74
2022/03/05 04:45:10;;;;;;;;;50.75;42.25;;;;;;;;5142856;27;45922;-74
2022/03/05 04:47:36;;;;;;;;;47.25;39.00;;;;;;;;5141775;27;45483;-74
2022/03/05 04:50:02;;;;;;;;;52.50;42.50;;;;;;;;5143277;27;45316;-74
2022/03/05 04:52:28;;;;;;;;;51.50;40.50;;;;;;;;5141758;27;46174;-74
2022/03/05 04:54:53;;;;;;;;;51.00;41.00;;;;;;;;5142835;27;46070;-75
2022/03/05 04:57:19;;;;;;;;;51.50;42.25;;;;;;;;5142829;27;45143;-75
2022/03/05 04:59:44;;;;;;;;;49.00;39.75;;;;;;;;5143027;27;45209;-75
2022/03/05 05:02:09;;;;;;;;;55.00;45.00;;;;;;;;5141441;27;45569;-75
2022/03/05 05:04:34;;;;;;;;;52.25;43.25;;;;;;;;5142925;27;46111;-75
2022/03/05 05:07:00;;;;;;;;;54.50;43.25;;;;;;;;5142826;27;45944;-74
2022/03/05 05:09:25;;;;;;;;;52.25;42.00;;;;;;;;5142880;27;45208;-74
2022/03/05 05:11:50;;;;;;;;;52.00;42.25;;;;;;;;5142018;27;45246;-75
2022/03/05 05:14:15;;;;;;;;;54.50;44.75;;;;;;;;5142639;27;45375;-75
2022/03/05 05:16:40;;;;;;;;;52.50;44.00;;;;;;;;5141423;27;45439;-75
2022/03/05 05:19:24;;;;;;;;;50.00;40.25;;;;;;;;5125868;27;45469;-74
2022/03/05 05:21:50;;;;;;;;;48.75;40.50;;;;;;;;5121931;27;45245;-75
2022/03/05 05:24:15;;;;;;;;;55.25;44.00;;;;;;;;5121335;27;46480;-75
2022/03/05 05:26:40;;;;;;;;;50.50;40.00;;;;;;;;5120290;27;45292;-75
2022/03/05 05:29:05;;;;;;;;;54.50;45.25;;;;;;;;5120395;27;45273;-75
2022/03/05 05:31:30;;;;;;;;;53.00;43.50;;;;;;;;5121622;27;45387;-76
2022/03/05 05:33:56;;;;;;;;;55.75;44.25;;;;;;;;5120169;27;48126;-76
2022/03/05 05:36:21;;;;;;;;;53.50;43.00;;;;;;;;5117533;27;45309;-75
2022/03/05 05:38:46;;;;;;;;;55.50;44.25;;;;;;;;5117829;27;45372;-75
2022/03/05 05:41:16;;;;;;;;;55.75;44.00;;;;;;;;5119820;27;46380;-75
2022/03/05 05:43:41;;;;;;;;;56.25;45.75;;;;;;;;5120143;27;45587;-76
2022/03/05 05:46:06;;;;;;;;;49.75;41.25;;;;;;;;5120024;27;45245;-75
2022/03/05 05:48:31;;;;;;;;;39.25;36.00;;;;;;;;5120162;27;45337;-75
2022/03/05 05:50:57;;;;;;;;;58.75;45.25;;;;;;;;5121403;27;45248;-75
2022/03/05 05:53:23;;;;;;;;;58.00;45.75;;;;;;;;5121301;27;45343;-76
2022/03/05 05:55:48;;;;;;;;;55.00;44.25;;;;;;;;5121096;27;45223;-76
2022/03/05 05:58:13;;;;;;;;;54.75;44.25;;;;;;;;5119959;27;45249;-76
2022/03/05 06:00:38;;;;;;;;;50.25;41.50;;;;;;;;5121215;27;45316;-75
2022/03/05 06:03:04;;;;;;;;;55.25;46.00;;;;;;;;5121181;27;46787;-76
2022/03/05 06:05:29;;;;;;;;;55.00;43.00;;;;;;;;5119709;27;45233;-75
2022/03/05 06:07:56;;;;;;;;;46.00;38.75;;;;;;;;5107449;27;45487;-75
2022/03/05 06:10:21;;;;;;;;;51.75;40.75;;;;;;;;5100307;27;45364;-75
2022/03/05 06:12:47;;;;;;;;;49.50;41.00;;;;;;;;5099150;27;48220;-74
2022/03/05 06:15:13;;;;;;;;;48.75;39.00;;;;;;;;5100477;27;45298;-74
2022/03/05 06:17:40;;;;;;;;;46.25;38.50;;;;;;;;5108325;27;45407;-76
2022/03/05 06:20:06;;;;;;;;;45.50;39.50;;;;;;;;5113603;27;46878;-74
2022/03/05 06:22:31;;;;;;;;;49.00;40.00;;;;;;;;5120828;27;45363;-75
2022/03/05 06:24:56;;;;;;;;;42.50;37.75;;;;;;;;5121917;27;45709;-75
2022/03/05 06:27:22;;;;;;;;;46.00;36.25;;;;;;;;5124659;27;45324;-75
2022/03/05 06:29:47;;;;;;;;;47.50;37.50;;;;;;;;5122871;27;46485;-75
2022/03/05 06:32:12;;;;;;;;;49.50;42.50;;;;;;;;5122942;27;45289;-75
2022/03/05 06:34:37;;;;;;;;;49.00;39.25;;;;;;;;5123230;27;46050;-75
2022/03/05 06:37:03;;;;;;;;;49.25;41.00;;;;;;;;5124646;27;45264;-76
2022/03/05 06:39:28;;;;;;;;;46.00;36.75;;;;;;;;5123095;27;46305;-75
2022/03/05 06:41:53;;;;;;;;;39.00;37.00;;;;;;;;5124141;27;45550;-75
2022/03/05 06:44:19;;;;;;;;;51.50;41.00;;;;;;;;5114233;27;45930;-75
2022/03/05 06:46:44;;;;;;;;;54.25;43.75;;;;;;;;5113135;27;45448;-75
2022/03/05 06:49:09;;;;;;;;;41.50;36.25;;;;;;;;5110799;27;47210;-75
2022/03/05 06:51:35;;;;;;;;;46.00;35.00;;;;;;;;5112228;27;47036;-75
2022/03/05 06:54:00;;;;;;;;;49.75;40.75;;;;;;;;5112182;27;45675;-75
2022/03/05 06:56:25;;;;;;;;;46.00;39.00;;;;;;;;5112058;27;45245;-75
2022/03/05 06:58:50;;;;;;;;;46.00;37.75;;;;;;;;5112774;27;46266;-75
2022/03/05 07:01:16;;;;;;;;;48.75;39.75;;;;;;;;5111493;27;46997;-75
2022/03/05 07:03:41;;;;;;;;;43.75;36.00;;;;;;;;5111151;27;45549;-75
2022/03/05 07:06:06;;;;;;;;;42.75;36.50;;;;;;;;5112800;27;45618;-75
2022/03/05 07:08:32;;;;;;;;;40.75;34.25;;;;;;;;5110747;27;45815;-74
2022/03/05 07:10:57;;;;;;;;;38.25;35.75;;;;;;;;5111336;27;47355;-75
2022/03/05 07:13:22;;;;;;;;;45.50;37.50;;;;;;;;5112259;27;45313;-75
2022/03/05 07:15:47;;;;;;;;;43.25;36.25;;;;;;;;5107531;27;45285;-75
2022/03/05 07:18:13;;;;;;;;;43.00;37.75;;;;;;;;5106571;27;45393;-75
2022/03/05 07:20:38;;;;;;;;;38.25;34.25;;;;;;;;5111946;27;47254;-75
2022/03/05 07:23:04;;;;;;;;;47.25;36.25;;;;;;;;5110252;27;45349;-74
2022/03/05 07:25:36;;;;;;;;;46.00;38.25;;;;;;;;5109735;27;45593;-74
2022/03/05 07:28:01;;;;;;;;;41.75;36.50;;;;;;;;5112780;27;46488;-75
2022/03/05 07:30:26;;;;;;;;;45.00;37.50;;;;;;;;5123457;27;46642;-75
2022/03/05 07:32:51;;;;;;;;;45.50;38.00;;;;;;;;5123820;27;45371;-75
2022/03/05 07:35:16;;;;;;;;;39.50;37.25;;;;;;;;5123305;27;45301;-75
2022/03/05 07:37:42;;;;;;;;;41.00;35.50;;;;;;;;5116260;27;46959;-76
2022/03/05 07:40:07;;;;;;;;;41.25;37.00;;;;;;;;5106422;27;47663;-75
2022/03/05 07:42:33;;;;;;;;;39.75;36.00;;;;;;;;5113872;27;45447;-77
2022/03/05 07:44:58;;;;;;;;;39.25;36.00;;;;;;;;5112863;27;45303;-75
2022/03/05 07:47:23;;;;;;;;;39.75;36.25;;;;;;;;5113595;27;45298;-75
2022/03/05 07:49:48;;;;;;;;;47.75;38.75;;;;;;;;5111020;27;46101;-76
2022/03/05 07:52:14;;;;;;;;;46.25;41.50;;;;;;;;5102712;27;45254;-75
2022/03/05 07:54:39;;;;;;;;;42.50;37.25;;;;;;;;5102657;27;45313;-75
2022/03/05 07:57:04;;;;;;;;;49.75;41.25;;;;;;;;5100895;27;47033;-76
2022/03/05 07:59:29;;;;;;;;;47.75;40.25;;;;;;;;5102430;27;45377;-76
2022/03/05 08:01:54;;;;;;;;;51.50;40.00;;;;;;;;5102517;27;45286;-75
2022/03/05 08:04:20;;;;;;;;;51.75;43.00;;;;;;;;5102494;27;45698;-75
2022/03/05 08:06:45;;;;;;;;;57.25;47.75;;;;;;;;5102552;27;45390;-76
2022/03/05 08:09:10;;;;;;;;;58.00;47.00;;;;;;;;5111980;27;46172;-76
2022/03/05 08:11:36;;;;;;;;;58.50;48.75;;;;;;;;5111834;27;45269;-76
2022/03/05 08:14:01;;;;;;;;;57.75;47.75;;;;;;;;5111564;27;45337;-75
2022/03/05 08:16:27;;;;;;;;;53.75;45.00;;;;;;;;5107947;27;46682;-76
2022/03/05 08:18:52;;;;;;;;;55.00;45.00;;;;;;;;5110790;27;47272;-76
2022/03/05 08:21:17;;;;;;;;;52.00;41.75;;;;;;;;5105860;27;45419;-76
2022/03/05 08:23:43;;;;;;;;;50.00;41.00;;;;;;;;5104321;27;45611;-76
2022/03/05 08:26:13;;;;;;;;;55.50;43.75;;;;;;;;5111482;27;45420;-75
2022/03/05 08:28:38;;;;;;;;;52.75;44.00;;;;;;;;5110739;27;47060;-75
2022/03/05 08:31:03;;;;;;;;;46.75;40.00;;;;;;;;5109524;27;45551;-75
2022/03/05 08:33:29;;;;;;;;;53.25;44.00;;;;;;;;5104873;27;45479;-75
2022/03/05 08:35:55;;;;;;;;;57.00;45.75;;;;;;;;5112071;27;45540;-76
2022/03/05 08:38:20;;;;;;;;;55.50;43.25;;;;;;;;5110848;27;45390;-75
2022/03/05 08:40:45;;;;;;;;;56.25;44.00;;;;;;;;5109141;27;45411;-76
2022/03/05 08:43:10;;;;;;;;;49.75;42.25;;;;;;;;5111315;27;45503;-76
2022/03/05 08:45:36;;;;;;;;;54.75;44.50;;;;;;;;5110312;27;45649;-76
2022/03/05 08:48:01;;;;;;;;;61.25;46.00;;;;;;;;5110346;27;45627;-77
2022/03/05 08:50:26;;;;;;;;;57.00;46.50;;;;;;;;5117327;27;45263;-76
2022/03/05 08:52:52;;;;;;;;;55.50;42.50;;;;;;;;5122429;27;45218;-76
2022/03/05 08:55:17;;;;;;;;;56.25;44.00;;;;;;;;5120634;27;47141;-75
2022/03/05 08:57:42;;;;;;;;;55.75;46.00;;;;;;;;5122175;27;46051;-76
2022/03/05 09:00:09;;;;;;;;;55.00;44.25;;;;;;;;5122215;27;45265;-76
2022/03/05 09:02:35;;;;;;;;;53.50;45.25;;;;;;;;5120906;27;45235;-75
2022/03/05 09:05:00;;;;;;;;;53.75;45.25;;;;;;;;5115101;27;45213;-77
2022/03/05 09:07:25;;;;;;;;;54.00;44.50;;;;;;;;5108754;27;47208;-78
2022/03/05 09:09:51;;;;;;;;;54.25;44.50;;;;;;;;5107090;27;45404;-75
2022/03/05 09:12:16;;;;;;;;;58.25;43.75;;;;;;;;5100239;27;45221;-75
2022/03/05 09:14:41;;;;;;;;;52.75;44.00;;;;;;;;5118894;27;45620;-75
2022/03/05 09:17:06;;;;;;;;;55.75;44.50;;;;;;;;5121753;27;45395;-75
2022/03/05 09:19:32;;;;;;;;;57.25;48.50;;;;;;;;5142384;27;45317;-75
2022/03/05 09:21:57;;;;;;;;;54.00;44.75;;;;;;;;5142257;27;45400;-75
2022/03/05 09:24:23;;;;;;;;;51.75;43.75;;;;;;;;5140517;27;45375;-75
2022/03/05 09:26:48;;;;;;;;;58.75;45.25;;;;;;;;5140216;27;45421;-75
2022/03/05 09:29:13;;;;;;;;;58.25;47.00;;;;;;;;5138402;27;45413;-75
2022/03/05 09:31:39;;;;;;;;;59.50;48.75;;;;;;;;5140436;27;45497;-75
2022/03/05 09:34:04;;;;;;;;;58.50;49.00;;;;;;;;5138376;27;46769;-75
2022/03/05 09:36:31;;;;;;;;;60.50;49.50;;;;;;;;5139269;27;47504;-75
2022/03/05 09:38:56;;;;;;;;;60.75;49.00;;;;;;;;5141251;27;45287;-75
2022/03/05 09:41:22;;;;;;;;;61.50;49.25;;;;;;;;5141795;27;45215;-75
2022/03/05 09:43:47;;;;;;;;;59.50;48.50;;;;;;;;5140785;27;45756;-75
2022/03/05 09:46:12;;;;;;;;;62.75;49.25;;;;;;;;5142166;27;45481;-75
2022/03/05 09:48:39;;;;;;;;;55.25;46.00;;;;;;;;5140742;27;45979;-75
2022/03/05 09:51:04;;;;;;;;;58.50;47.75;;;;;;;;5142387;27;45264;-75
2022/03/05 09:53:30;;;;;;;;;60.25;47.75;;;;;;;;5141945;27;45221;-75
2022/03/05 09:55:55;;;;;;;;;56.00;45.50;;;;;;;;5140397;27;48071;-75
2022/03/05 09:58:20;;;;;;;;;57.50;47.25;;;;;;;;5140469;27;45499;-75
2022/03/05 10:00:45;;;;;;;;;54.75;46.25;;;;;;;;5142146;27;45473;-75
2022/03/05 10:03:14;;;;;;;;;59.50;45.75;;;;;;;;5140453;27;45499;-75
2022/03/05 10:05:39;;;;;;;;;58.25;48.00;;;;;;;;5141734;27;45616;-75
2022/03/05 10:08:15;;;;;;;;;51.75;42.00;;;;;;;;5141933;27;45249;-75
2022/03/05 10:10:50;;;;;;;;;55.00;44.75;;;;;;;;5140324;27;45298;-75
2022/03/05 10:13:18;;;;;;;;;56.75;45.75;;;;;;;;5139628;27;45372;-76
2022/03/05 10:15:44;;;;;;;;;56.75;44.75;;;;;;;;5101977;27;45492;-75
2022/03/05 10:18:10;;;;;;;;;48.50;40.50;;;;;;;;5117695;27;45625;-75
2022/03/05 10:20:41;;;;;;;;;51.75;42.25;;;;;;;;5140515;27;45265;-75
2022/03/05 10:23:08;;;;;;;;;51.25;41.50;;;;;;;;5140344;27;46467;-75
2022/03/05 10:25:34;;;;;;;;;50.50;40.25;;;;;;;;5134419;27;45210;-75
2022/03/05 10:28:04;;;;;;;;;56.00;42.75;;;;;;;;5107180;27;45187;-74
2022/03/05 10:30:34;;;;;;;;;52.75;43.00;;;;;;;;5098473;27;45353;-75
2022/03/05 10:32:59;;;;;;;;;50.75;41.50;;;;;;;;5103263;27;46753;-75
2022/03/05 10:35:25;;;;;;;;;54.00;45.75;;;;;;;;5097187;27;47428;-75
2022/03/05 10:37:54;;;;;;;;;52.75;43.25;;;;;;;;5107608;27;45387;-75
2022/03/05 10:40:26;;;;;;;;;48.75;39.00;;;;;;;;5108362;27;45368;-75
2022/03/05 10:42:51;;;;;;;;;42.75;37.75;;;;;;;;5106568;27;46169;-75
2022/03/05 10:45:18;;;;;;;;;52.00;41.25;;;;;;;;5108130;27;46805;-75
2022/03/05 10:47:48;;;;;;;;;51.25;43.00;;;;;;;;5109537;27;45446;-76
2022/03/05 10:50:19;;;;;;;;;49.00;42.00;;;;;;;;5106127;27;45306;-76
2022/03/05 10:52:45;;;;;;;;;46.75;39.00;;;;;;;;5109302;27;45441;-76
2022/03/05 10:55:18;;;;;;;;;51.50;43.00;;;;;;;;5105117;27;48060;-77
2022/03/05 10:57:55;;;;;;;;;51.25;42.50;;;;;;;;5099464;27;45305;-77
2022/03/05 11:00:20;;;;;;;;;50.75;42.25;;;;;;;;5099782;27;45368;-76
2022/03/05 11:02:45;;;;;;;;;50.75;42.00;;;;;;;;5098151;27;46243;-77
2022/03/05 11:05:11;;;;;;;;;52.75;41.00;;;;;;;;5099644;27;45322;-76
2022/03/05 11:07:37;;;;;;;;;51.25;40.75;;;;;;;;5099514;27;45282;-75
2022/03/05 11:10:03;;;;;;;;;50.25;41.00;;;;;;;;5100031;27;45635;-76
2022/03/05 11:12:29;;;;;;;;;51.00;40.75;;;;;;;;5111974;27;46816;-77
2022/03/05 11:14:54;;;;;;;;;49.50;41.00;;;;;;;;5123663;27;46174;-77
2022/03/05 11:17:20;;;;;;;;;48.75;40.00;;;;;;;;5125567;27;45361;-77
2022/03/05 11:19:45;;;;;;;;;46.50;38.50;;;;;;;;5144597;27;45601;-76
2022/03/05 11:22:11;;;;;;;;;45.50;38.25;;;;;;;;5144968;27;45224;-77
2022/03/05 11:24:40;;;;;;;;;48.75;38.00;;;;;;;;5146132;27;46198;-77
2022/03/05 11:27:05;;;;;;;;;46.25;38.50;;;;;;;;5144309;27;45354;-76
2022/03/05 11:29:51;;;;;;;;;45.25;38.00;;;;;;;;5144178;27;45957;-78
2022/03/05 11:32:16;;;;;;;;;45.50;39.00;;;;;;;;5144108;27;45638;-78
2022/03/05 11:34:49;;;;;;;;;45.00;39.00;;;;;;;;5142977;27;48240;-76
2022/03/05 11:37:23;;;;;;;;;43.50;36.25;;;;;;;;5144350;27;45469;-77
2022/03/05 11:39:48;;;;;;;;;42.00;36.00;;;;;;;;5142643;27;45339;-77
2022/03/05 11:42:25;;;;;;;;;43.75;37.00;;;;;;;;5142579;27;46204;-80
2022/03/05 11:44:51;;;;;;;;;42.75;35.00;;;;;;;;5142506;27;48294;-77
2022/03/05 11:47:19;;;;;;;;;44.25;35.75;;;;;;;;5142582;27;45684;-78
2022/03/05 11:49:59;;;;;;;;;45.75;37.50;;;;;;;;5144415;27;45306;-79
2022/03/05 11:52:36;;;;;;;;;36.75;32.25;;;;;;;;5125846;27;45482;-77
2022/03/05 11:55:10;;;;;;;;;39.75;33.50;;;;;;;;5100665;27;45774;-76
2022/03/05 11:57:36;;;;;;;;;44.50;37.75;;;;;;;;5101286;27;45335;-78
2022/03/05 12:00:03;;;;;;;;;41.67;34.67;;;;;;;;5112630;27;46481;-78
2022/03/05 12:02:50;;;;;;;;;45.25;37.00;;;;;;;;5111053;27;46022;-78
2022/03/05 12:05:34;;;;;;;;;44.25;37.00;;;;;;;;5108373;27;45505;-77
2022/03/05 12:08:00;;;;;;;;;44.25;35.75;;;;;;;;5103735;27;45365;-78
2022/03/05 12:10:25;;;;;;;;;42.00;36.75;;;;;;;;5110893;27;45459;-78
2022/03/05 12:12:52;;;;;;;;;39.67;34.67;;;;;;;;5110460;27;46291;-77
2022/03/05 12:15:20;;;;;;;;;38.67;33.33;;;;;;;;5107805;27;48439;-78
2022/03/05 12:17:46;;;;;;;;;43.75;38.25;;;;;;;;5117076;27;45375;-78
2022/03/05 12:20:12;;;;;;;;;41.25;34.25;;;;;;;;5108349;27;45442;-78
2022/03/05 12:22:58;;;;;;;;;39.00;35.00;;;;;;;;5108521;27;46100;-78
2022/03/05 12:25:24;;;;;;;;;46.75;37.50;;;;;;;;5109775;27;46879;-78
2022/03/05 12:27:51;;;;;;;;;41.75;35.75;;;;;;;;5109637;27;45372;-78
2022/03/05 12:30:17;;;;;;;;;47.00;38.25;;;;;;;;5105298;27;45348;-76
2022/03/05 12:32:47;;;;;;;;;38.67;33.33;;;;;;;;5107924;27;45403;-78
2022/03/05 12:35:14;;;;;;;;;44.25;37.25;;;;;;;;5110068;27;45465;-76
2022/03/05 12:37:39;;;;;;;;;41.75;36.50;;;;;;;;5107984;27;45522;-77
2022/03/05 12:40:05;;;;;;;;;39.00;33.50;;;;;;;;5108401;27;45414;-77
2022/03/05 12:42:37;;;;;;;;;44.50;36.75;;;;;;;;5110724;27;46365;-78
2022/03/05 12:45:03;;;;;;;;;43.00;34.33;;;;;;;;5107921;27;46689;-77
2022/03/05 12:47:33;;;;;;;;;42.00;34.67;;;;;;;;5109270;27;45277;-76
2022/03/05 12:49:58;;;;;;;;;41.00;34.00;;;;;;;;5110355;27;45397;-76
2022/03/05 12:52:23;;;;;;;;;39.33;34.33;;;;;;;;5110418;27;45356;-76
2022/03/05 12:54:55;;;;;;;;;42.33;35.67;;;;;;;;5109063;27;45360;-76
2022/03/05 12:57:20;;;;;;;;;43.33;36.33;;;;;;;;5109588;27;45479;-76
2022/03/05 12:59:45;;;;;;;;;38.00;33.33;;;;;;;;5108804;27;45683;-75
2022/03/05 13:02:11;;;;;;;;;38.50;33.25;;;;;;;;5108099;27;45411;-75
2022/03/05 13:04:36;;;;;;;;;43.00;36.67;;;;;;;;5107331;27;47180;-76
2022/03/05 13:07:02;;;;;;;;;44.67;37.00;;;;;;;;5109562;27;45593;-77
2022/03/05 13:09:28;;;;;;;;;44.00;37.00;;;;;;;;5109350;27;45468;-76
2022/03/05 13:11:53;;;;;;;;;46.50;38.50;;;;;;;;5107323;27;46470;-76
2022/03/05 13:14:19;;;;;;;;;44.25;37.00;;;;;;;;5110552;27;45430;-76
2022/03/05 13:16:48;;;;;;;;;49.25;42.00;;;;;;;;5102622;27;45332;-77
2022/03/05 13:19:13;;;;;;;;;46.00;38.25;;;;;;;;5135431;27;45272;-76
2022/03/05 13:21:39;;;;;;;;;48.25;38.75;;;;;;;;5142439;27;45197;-75
2022/03/05 13:24:05;;;;;;;;;48.67;39.00;;;;;;;;5140889;27;47318;-76
2022/03/05 13:26:34;;;;;;;;;47.67;37.67;;;;;;;;5140792;27;45249;-75
2022/03/05 13:29:00;;;;;;;;;45.67;38.00;;;;;;;;5141059;27;45304;-76
2022/03/05 13:31:28;;;;;;;;;47.00;39.00;;;;;;;;5113142;27;45285;-78
2022/03/05 13:33:53;;;;;;;;;46.67;39.33;;;;;;;;5110762;27;46270;-78
2022/03/05 13:36:19;;;;;;;;;45.67;38.33;;;;;;;;5117965;27;45268;-76
2022/03/05 13:38:45;;;;;;;;;44.67;38.00;;;;;;;;5112050;27;45848;-75
2022/03/05 13:41:11;;;;;;;;;50.00;41.33;;;;;;;;5101436;27;45428;-76
2022/03/05 13:43:37;;;;;;;;;46.33;38.33;;;;;;;;5099204;27;47342;-74
2022/03/05 13:46:06;;;;;;;;;44.33;36.67;;;;;;;;5101615;27;45539;-74
2022/03/05 13:48:38;;;;;;;;;49.00;40.00;;;;;;;;5101459;27;45243;-75
2022/03/05 13:51:13;;;;;;;;;47.33;38.33;;;;;;;;5099178;27;46240;-76
2022/03/05 13:53:45;;;;;;;;;51.33;42.33;;;;;;;;5100616;27;46601;-75
2022/03/05 13:56:12;;;;;;;;;45.33;39.33;;;;;;;;5098480;27;45308;-75
2022/03/05 13:58:38;;;;;;;;;49.33;40.00;;;;;;;;5099279;27;45326;-74
2022/03/05 14:01:12;;;;;;;;;50.00;41.00;;;;;;;;5099951;27;45502;-75
2022/03/05 14:03:38;;;;;;;;;46.67;37.67;;;;;;;;5098605;27;46328;-75
2022/03/05 14:06:10;;;;;;;;;44.67;38.00;;;;;;;;5100101;27;45485;-75
2022/03/05 14:08:45;;;;;;;;;45.67;38.33;;;;;;;;5097803;27;45601;-75
2022/03/05 14:11:11;;;;;;;;;50.00;41.33;;;;;;;;5097647;27;46268;-74